sensor_id;sensor_type;location;lat;lon;timestamp;P1;durP1;ratioP1;P2;durP2;ratioP2
17784;SDS011;9016;53.582;10.062;2023-06-22T00:00:36;0.30;;;0.30;;
17784;SDS011;9016;53.582;10.062;2023-06-22T00:03:07;0.30;;;0.30;;
17784;SDS011;9016;53.582;10.062;2023-06-22T00:05:35;0.30;;;0.30;;
17784;SDS011;9016;53.582;10.062;2023-06-22T00:08:03;0.30;;;0.30;;
17784;SDS011;9016;53.582;10.062;2023-06-22T00:10:35;0.30;;;0.30;;
17784;SDS011;9016;53.582;10.062;2023-06-22T00:13:04;0.30;;;0.30;;
17784;SDS011;9016;53.582;10.062;2023-06-22T00:15:33;0.20;;;0.20;;
17784;SDS011;9016;53.582;10.062;2023-06-22T00:18:01;0.20;;;0.20;;
17784;SDS011;9016;53.582;10.062;2023-06-22T00:20:32;0.30;;;0.30;;
17784;SDS011;9016;53.582;10.062;2023-06-22T00:23:03;0.30;;;0.30;;
17784;SDS011;9016;53.582;10.062;2023-06-22T00:25:35;0.30;;;0.30;;
17784;SDS011;9016;53.582;10.062;2023-06-22T00:28:03;0.30;;;0.30;;
17784;SDS011;9016;53.582;10.062;2023-06-22T00:30:32;0.30;;;0.30;;
17784;SDS011;9016;53.582;10.062;2023-06-22T00:33:01;0.30;;;0.30;;
17784;SDS011;9016;53.582;10.062;2023-06-22T00:35:30;0.30;;;0.30;;
17784;SDS011;9016;53.582;10.062;2023-06-22T00:38:00;0.30;;;0.30;;
17784;SDS011;9016;53.582;10.062;2023-06-22T00:40:30;0.30;;;0.30;;
17784;SDS011;9016;53.582;10.062;2023-06-22T00:42:59;0.30;;;0.30;;
17784;SDS011;9016;53.582;10.062;2023-06-22T00:45:28;0.30;;;0.30;;
17784;SDS011;9016;53.582;10.062;2023-06-22T00:47:56;0.30;;;0.30;;
17784;SDS011;9016;53.582;10.062;2023-06-22T00:50:26;0.30;;;0.30;;
17784;SDS011;9016;53.582;10.062;2023-06-22T00:53:04;0.38;;;0.38;;
17784;SDS011;9016;53.582;10.062;2023-06-22T00:55:36;0.30;;;0.30;;
17784;SDS011;9016;53.582;10.062;2023-06-22T00:58:05;0.30;;;0.30;;
17784;SDS011;9016;53.582;10.062;2023-06-22T01:00:37;0.30;;;0.30;;
17784;SDS011;9016;53.582;10.062;2023-06-22T01:03:06;0.30;;;0.30;;
17784;SDS011;9016;53.582;10.062;2023-06-22T01:05:37;0.30;;;0.30;;
17784;SDS011;9016;53.582;10.062;2023-06-22T01:08:14;0.30;;;0.30;;
17784;SDS011;9016;53.582;10.062;2023-06-22T01:10:52;0.30;;;0.30;;
17784;SDS011;9016;53.582;10.062;2023-06-22T01:13:26;0.30;;;0.30;;
17784;SDS011;9016;53.582;10.062;2023-06-22T01:16:00;0.30;;;0.30;;
17784;SDS011;9016;53.582;10.062;2023-06-22T01:18:30;0.30;;;0.30;;
17784;SDS011;9016;53.582;10.062;2023-06-22T01:21:04;0.28;;;0.28;;
17784;SDS011;9016;53.582;10.062;2023-06-22T01:23:39;0.30;;;0.30;;
17784;SDS011;9016;53.582;10.062;2023-06-22T01:26:20;0.30;;;0.30;;
17784;SDS011;9016;53.582;10.062;2023-06-22T01:28:59;0.30;;;0.30;;
17784;SDS011;9016;53.582;10.062;2023-06-22T01:31:28;0.40;;;0.40;;
17784;SDS011;9016;53.582;10.062;2023-06-22T01:33:59;0.32;;;0.32;;
17784;SDS011;9016;53.582;10.062;2023-06-22T01:36:30;0.30;;;0.30;;
17784;SDS011;9016;53.582;10.062;2023-06-22T01:39:02;0.35;;;0.35;;
17784;SDS011;9016;53.582;10.062;2023-06-22T01:41:33;0.30;;;0.30;;
17784;SDS011;9016;53.582;10.062;2023-06-22T01:44:04;0.30;;;0.30;;
17784;SDS011;9016;53.582;10.062;2023-06-22T01:46:35;0.30;;;0.30;;
17784;SDS011;9016;53.582;10.062;2023-06-22T01:49:04;0.30;;;0.30;;
17784;SDS011;9016;53.582;10.062;2023-06-22T01:51:33;0.28;;;0.28;;
17784;SDS011;9016;53.582;10.062;2023-06-22T01:54:01;0.30;;;0.30;;
17784;SDS011;9016;53.582;10.062;2023-06-22T01:56:30;0.30;;;0.30;;
17784;SDS011;9016;53.582;10.062;2023-06-22T01:59:01;0.30;;;0.30;;
17784;SDS011;9016;53.582;10.062;2023-06-22T02:01:40;0.30;;;0.30;;
17784;SDS011;9016;53.582;10.062;2023-06-22T02:04:12;0.30;;;0.30;;
17784;SDS011;9016;53.582;10.062;2023-06-22T02:06:47;0.30;;;0.30;;
17784;SDS011;9016;53.582;10.062;2023-06-22T02:09:19;0.30;;;0.30;;
17784;SDS011;9016;53.582;10.062;2023-06-22T02:11:50;0.30;;;0.30;;
17784;SDS011;9016;53.582;10.062;2023-06-22T02:14:23;0.30;;;0.30;;
17784;SDS011;9016;53.582;10.062;2023-06-22T02:16:52;0.30;;;0.30;;
17784;SDS011;9016;53.582;10.062;2023-06-22T02:19:22;0.30;;;0.30;;
17784;SDS011;9016;53.582;10.062;2023-06-22T02:21:51;0.30;;;0.30;;
17784;SDS011;9016;53.582;10.062;2023-06-22T02:24:19;0.30;;;0.30;;
17784;SDS011;9016;53.582;10.062;2023-06-22T02:26:50;0.30;;;0.30;;
17784;SDS011;9016;53.582;10.062;2023-06-22T02:29:18;0.30;;;0.30;;
17784;SDS011;9016;53.582;10.062;2023-06-22T02:31:47;0.30;;;0.30;;
17784;SDS011;9016;53.582;10.062;2023-06-22T02:34:15;0.30;;;0.30;;
17784;SDS011;9016;53.582;10.062;2023-06-22T02:36:45;0.30;;;0.30;;
17784;SDS011;9016;53.582;10.062;2023-06-22T02:39:18;0.40;;;0.40;;
17784;SDS011;9016;53.582;10.062;2023-06-22T02:41:48;0.30;;;0.30;;
17784;SDS011;9016;53.582;10.062;2023-06-22T02:44:17;0.30;;;0.30;;
17784;SDS011;9016;53.582;10.062;2023-06-22T02:46:47;0.32;;;0.32;;
17784;SDS011;9016;53.582;10.062;2023-06-22T02:49:16;0.30;;;0.30;;
17784;SDS011;9016;53.582;10.062;2023-06-22T02:51:45;0.35;;;0.35;;
17784;SDS011;9016;53.582;10.062;2023-06-22T02:54:16;0.30;;;0.30;;
17784;SDS011;9016;53.582;10.062;2023-06-22T02:56:44;0.30;;;0.30;;
17784;SDS011;9016;53.582;10.062;2023-06-22T02:59:12;0.30;;;0.30;;
17784;SDS011;9016;53.582;10.062;2023-06-22T03:01:40;0.30;;;0.30;;
17784;SDS011;9016;53.582;10.062;2023-06-22T03:04:09;0.30;;;0.30;;
17784;SDS011;9016;53.582;10.062;2023-06-22T03:06:37;0.30;;;0.30;;
17784;SDS011;9016;53.582;10.062;2023-06-22T03:09:07;0.30;;;0.30;;
17784;SDS011;9016;53.582;10.062;2023-06-22T03:11:35;0.40;;;0.40;;
17784;SDS011;9016;53.582;10.062;2023-06-22T03:14:03;0.30;;;0.30;;
17784;SDS011;9016;53.582;10.062;2023-06-22T03:16:31;0.30;;;0.30;;
17784;SDS011;9016;53.582;10.062;2023-06-22T03:19:00;0.30;;;0.30;;
17784;SDS011;9016;53.582;10.062;2023-06-22T03:21:29;0.30;;;0.30;;
17784;SDS011;9016;53.582;10.062;2023-06-22T03:23:59;0.30;;;0.30;;
17784;SDS011;9016;53.582;10.062;2023-06-22T03:26:27;0.30;;;0.30;;
17784;SDS011;9016;53.582;10.062;2023-06-22T03:28:56;0.30;;;0.30;;
17784;SDS011;9016;53.582;10.062;2023-06-22T03:31:24;0.30;;;0.30;;
17784;SDS011;9016;53.582;10.062;2023-06-22T03:33:52;0.30;;;0.30;;
17784;SDS011;9016;53.582;10.062;2023-06-22T03:36:20;0.30;;;0.30;;
17784;SDS011;9016;53.582;10.062;2023-06-22T03:38:51;0.40;;;0.40;;
17784;SDS011;9016;53.582;10.062;2023-06-22T03:41:19;0.30;;;0.30;;
17784;SDS011;9016;53.582;10.062;2023-06-22T03:43:47;0.30;;;0.30;;
17784;SDS011;9016;53.582;10.062;2023-06-22T03:46:15;0.40;;;0.40;;
17784;SDS011;9016;53.582;10.062;2023-06-22T03:48:43;0.30;;;0.30;;
17784;SDS011;9016;53.582;10.062;2023-06-22T03:51:14;0.30;;;0.30;;
17784;SDS011;9016;53.582;10.062;2023-06-22T03:53:42;0.30;;;0.30;;
17784;SDS011;9016;53.582;10.062;2023-06-22T03:56:11;0.30;;;0.30;;
17784;SDS011;9016;53.582;10.062;2023-06-22T03:58:46;0.30;;;0.30;;
17784;SDS011;9016;53.582;10.062;2023-06-22T04:01:14;0.30;;;0.30;;
17784;SDS011;9016;53.582;10.062;2023-06-22T04:03:43;0.30;;;0.30;;
17784;SDS011;9016;53.582;10.062;2023-06-22T04:06:11;0.30;;;0.30;;
17784;SDS011;9016;53.582;10.062;2023-06-22T04:08:40;0.30;;;0.30;;
17784;SDS011;9016;53.582;10.062;2023-06-22T04:11:09;0.30;;;0.30;;
17784;SDS011;9016;53.582;10.062;2023-06-22T04:13:39;0.30;;;0.30;;
17784;SDS011;9016;53.582;10.062;2023-06-22T04:16:07;0.30;;;0.30;;
17784;SDS011;9016;53.582;10.062;2023-06-22T04:18:35;0.40;;;0.40;;
17784;SDS011;9016;53.582;10.062;2023-06-22T04:21:04;0.30;;;0.30;;
17784;SDS011;9016;53.582;10.062;2023-06-22T04:23:32;0.38;;;0.38;;
17784;SDS011;9016;53.582;10.062;2023-06-22T04:26:00;0.30;;;0.30;;
17784;SDS011;9016;53.582;10.062;2023-06-22T04:28:28;0.30;;;0.30;;
17784;SDS011;9016;53.582;10.062;2023-06-22T04:31:00;0.30;;;0.30;;
17784;SDS011;9016;53.582;10.062;2023-06-22T04:33:29;0.30;;;0.30;;
17784;SDS011;9016;53.582;10.062;2023-06-22T04:35:57;0.30;;;0.30;;
17784;SDS011;9016;53.582;10.062;2023-06-22T04:38:27;0.40;;;0.40;;
17784;SDS011;9016;53.582;10.062;2023-06-22T04:40:55;0.30;;;0.30;;
17784;SDS011;9016;53.582;10.062;2023-06-22T04:43:23;0.30;;;0.30;;
17784;SDS011;9016;53.582;10.062;2023-06-22T04:45:52;0.30;;;0.30;;
17784;SDS011;9016;53.582;10.062;2023-06-22T04:48:21;0.40;;;0.40;;
17784;SDS011;9016;53.582;10.062;2023-06-22T04:50:49;0.25;;;0.25;;
17784;SDS011;9016;53.582;10.062;2023-06-22T04:53:17;0.32;;;0.32;;
17784;SDS011;9016;53.582;10.062;2023-06-22T04:55:45;0.30;;;0.30;;
17784;SDS011;9016;53.582;10.062;2023-06-22T04:58:15;0.30;;;0.30;;
17784;SDS011;9016;53.582;10.062;2023-06-22T05:00:46;0.40;;;0.40;;
17784;SDS011;9016;53.582;10.062;2023-06-22T05:03:17;0.30;;;0.30;;
17784;SDS011;9016;53.582;10.062;2023-06-22T05:05:47;0.30;;;0.30;;
17784;SDS011;9016;53.582;10.062;2023-06-22T05:08:15;0.30;;;0.30;;
17784;SDS011;9016;53.582;10.062;2023-06-22T05:10:44;0.40;;;0.40;;
17784;SDS011;9016;53.582;10.062;2023-06-22T05:13:30;0.32;;;0.32;;
17784;SDS011;9016;53.582;10.062;2023-06-22T05:15:58;0.30;;;0.30;;
17784;SDS011;9016;53.582;10.062;2023-06-22T05:18:29;0.45;;;0.45;;
17784;SDS011;9016;53.582;10.062;2023-06-22T05:20:59;0.30;;;0.30;;
17784;SDS011;9016;53.582;10.062;2023-06-22T05:23:28;0.30;;;0.30;;
17784;SDS011;9016;53.582;10.062;2023-06-22T05:25:56;0.40;;;0.40;;
17784;SDS011;9016;53.582;10.062;2023-06-22T05:28:24;0.30;;;0.30;;
17784;SDS011;9016;53.582;10.062;2023-06-22T05:30:53;0.30;;;0.30;;
17784;SDS011;9016;53.582;10.062;2023-06-22T05:33:21;0.40;;;0.40;;
17784;SDS011;9016;53.582;10.062;2023-06-22T05:35:49;0.40;;;0.40;;
17784;SDS011;9016;53.582;10.062;2023-06-22T05:38:19;0.38;;;0.38;;
17784;SDS011;9016;53.582;10.062;2023-06-22T05:40:47;0.32;;;0.32;;
17784;SDS011;9016;53.582;10.062;2023-06-22T05:43:15;0.30;;;0.30;;
17784;SDS011;9016;53.582;10.062;2023-06-22T05:45:43;0.30;;;0.30;;
17784;SDS011;9016;53.582;10.062;2023-06-22T05:48:11;0.30;;;0.30;;
17784;SDS011;9016;53.582;10.062;2023-06-22T05:50:39;0.30;;;0.30;;
17784;SDS011;9016;53.582;10.062;2023-06-22T05:53:07;0.30;;;0.30;;
17784;SDS011;9016;53.582;10.062;2023-06-22T05:55:36;0.30;;;0.30;;
17784;SDS011;9016;53.582;10.062;2023-06-22T05:58:04;0.30;;;0.30;;
17784;SDS011;9016;53.582;10.062;2023-06-22T06:00:33;0.35;;;0.35;;
17784;SDS011;9016;53.582;10.062;2023-06-22T06:03:01;0.30;;;0.30;;
17784;SDS011;9016;53.582;10.062;2023-06-22T06:05:30;0.40;;;0.40;;
17784;SDS011;9016;53.582;10.062;2023-06-22T06:07:59;0.32;;;0.32;;
17784;SDS011;9016;53.582;10.062;2023-06-22T06:10:30;0.30;;;0.30;;
17784;SDS011;9016;53.582;10.062;2023-06-22T06:13:01;0.30;;;0.30;;
17784;SDS011;9016;53.582;10.062;2023-06-22T06:15:30;0.38;;;0.38;;
17784;SDS011;9016;53.582;10.062;2023-06-22T06:17:59;0.30;;;0.30;;
17784;SDS011;9016;53.582;10.062;2023-06-22T06:20:28;0.40;;;0.40;;
17784;SDS011;9016;53.582;10.062;2023-06-22T06:22:57;0.40;;;0.40;;
17784;SDS011;9016;53.582;10.062;2023-06-22T06:25:25;0.52;;;0.52;;
17784;SDS011;9016;53.582;10.062;2023-06-22T06:27:53;0.50;;;0.50;;
17784;SDS011;9016;53.582;10.062;2023-06-22T06:30:23;0.60;;;0.60;;
17784;SDS011;9016;53.582;10.062;2023-06-22T06:32:51;0.60;;;0.60;;
17784;SDS011;9016;53.582;10.062;2023-06-22T06:35:19;0.50;;;0.50;;
17784;SDS011;9016;53.582;10.062;2023-06-22T06:37:48;0.50;;;0.50;;
17784;SDS011;9016;53.582;10.062;2023-06-22T06:40:18;0.40;;;0.40;;
17784;SDS011;9016;53.582;10.062;2023-06-22T06:42:47;0.50;;;0.50;;
17784;SDS011;9016;53.582;10.062;2023-06-22T06:45:16;0.50;;;0.50;;
17784;SDS011;9016;53.582;10.062;2023-06-22T06:47:47;0.60;;;0.60;;
17784;SDS011;9016;53.582;10.062;2023-06-22T06:50:15;0.60;;;0.60;;
17784;SDS011;9016;53.582;10.062;2023-06-22T06:52:43;0.57;;;0.57;;
17784;SDS011;9016;53.582;10.062;2023-06-22T06:55:12;0.52;;;0.52;;
17784;SDS011;9016;53.582;10.062;2023-06-22T06:57:41;0.50;;;0.50;;
17784;SDS011;9016;53.582;10.062;2023-06-22T07:00:10;0.60;;;0.60;;
17784;SDS011;9016;53.582;10.062;2023-06-22T07:02:41;0.57;;;0.57;;
17784;SDS011;9016;53.582;10.062;2023-06-22T07:05:11;0.50;;;0.50;;
17784;SDS011;9016;53.582;10.062;2023-06-22T07:07:39;0.45;;;0.45;;
17784;SDS011;9016;53.582;10.062;2023-06-22T07:10:09;0.50;;;0.50;;
17784;SDS011;9016;53.582;10.062;2023-06-22T07:12:37;0.70;;;0.70;;
17784;SDS011;9016;53.582;10.062;2023-06-22T07:15:06;0.60;;;0.60;;
17784;SDS011;9016;53.582;10.062;2023-06-22T07:17:36;0.60;;;0.60;;
17784;SDS011;9016;53.582;10.062;2023-06-22T07:20:06;0.70;;;0.70;;
17784;SDS011;9016;53.582;10.062;2023-06-22T07:22:38;0.60;;;0.60;;
17784;SDS011;9016;53.582;10.062;2023-06-22T07:25:07;0.60;;;0.60;;
17784;SDS011;9016;53.582;10.062;2023-06-22T07:27:37;0.52;;;0.52;;
17784;SDS011;9016;53.582;10.062;2023-06-22T07:30:06;0.50;;;0.50;;
17784;SDS011;9016;53.582;10.062;2023-06-22T07:32:35;0.40;;;0.40;;
17784;SDS011;9016;53.582;10.062;2023-06-22T07:35:04;0.50;;;0.50;;
17784;SDS011;9016;53.582;10.062;2023-06-22T07:37:32;0.50;;;0.50;;
17784;SDS011;9016;53.582;10.062;2023-06-22T07:40:03;0.60;;;0.60;;
17784;SDS011;9016;53.582;10.062;2023-06-22T07:42:33;0.70;;;0.70;;
17784;SDS011;9016;53.582;10.062;2023-06-22T07:45:02;0.70;;;0.70;;
17784;SDS011;9016;53.582;10.062;2023-06-22T07:47:31;0.70;;;0.70;;
17784;SDS011;9016;53.582;10.062;2023-06-22T07:50:02;0.50;;;0.50;;
17784;SDS011;9016;53.582;10.062;2023-06-22T07:52:33;0.70;;;0.70;;
17784;SDS011;9016;53.582;10.062;2023-06-22T07:55:03;0.60;;;0.60;;
17784;SDS011;9016;53.582;10.062;2023-06-22T07:57:31;0.70;;;0.70;;
17784;SDS011;9016;53.582;10.062;2023-06-22T08:00:01;0.60;;;0.60;;
17784;SDS011;9016;53.582;10.062;2023-06-22T08:02:36;0.60;;;0.60;;
17784;SDS011;9016;53.582;10.062;2023-06-22T08:05:04;0.50;;;0.50;;
17784;SDS011;9016;53.582;10.062;2023-06-22T08:07:46;0.60;;;0.60;;
17784;SDS011;9016;53.582;10.062;2023-06-22T08:10:16;0.50;;;0.50;;
17784;SDS011;9016;53.582;10.062;2023-06-22T08:12:44;0.50;;;0.50;;
17784;SDS011;9016;53.582;10.062;2023-06-22T08:15:12;0.70;;;0.70;;
17784;SDS011;9016;53.582;10.062;2023-06-22T08:17:40;0.50;;;0.50;;
17784;SDS011;9016;53.582;10.062;2023-06-22T08:20:09;0.70;;;0.70;;
17784;SDS011;9016;53.582;10.062;2023-06-22T08:22:38;0.70;;;0.70;;
17784;SDS011;9016;53.582;10.062;2023-06-22T08:25:07;0.70;;;0.70;;
17784;SDS011;9016;53.582;10.062;2023-06-22T08:27:37;0.70;;;0.70;;
17784;SDS011;9016;53.582;10.062;2023-06-22T08:30:06;0.70;;;0.70;;
17784;SDS011;9016;53.582;10.062;2023-06-22T08:32:35;0.70;;;0.70;;
17784;SDS011;9016;53.582;10.062;2023-06-22T08:35:03;0.70;;;0.70;;
17784;SDS011;9016;53.582;10.062;2023-06-22T08:37:32;0.80;;;0.80;;
17784;SDS011;9016;53.582;10.062;2023-06-22T08:40:03;0.80;;;0.80;;
17784;SDS011;9016;53.582;10.062;2023-06-22T08:42:34;0.90;;;0.90;;
17784;SDS011;9016;53.582;10.062;2023-06-22T08:45:04;0.80;;;0.80;;
17784;SDS011;9016;53.582;10.062;2023-06-22T08:47:36;0.70;;;0.70;;
17784;SDS011;9016;53.582;10.062;2023-06-22T08:50:04;0.90;;;0.90;;
17784;SDS011;9016;53.582;10.062;2023-06-22T08:52:34;1.08;;;1.08;;
17784;SDS011;9016;53.582;10.062;2023-06-22T08:55:04;0.90;;;0.90;;
17784;SDS011;9016;53.582;10.062;2023-06-22T08:57:35;0.90;;;0.90;;
17784;SDS011;9016;53.582;10.062;2023-06-22T09:00:07;0.90;;;0.90;;
17784;SDS011;9016;53.582;10.062;2023-06-22T09:02:44;0.80;;;0.80;;
17784;SDS011;9016;53.582;10.062;2023-06-22T09:05:12;0.85;;;0.85;;
17784;SDS011;9016;53.582;10.062;2023-06-22T09:07:41;0.90;;;0.90;;
17784;SDS011;9016;53.582;10.062;2023-06-22T09:10:09;0.90;;;0.90;;
17784;SDS011;9016;53.582;10.062;2023-06-22T09:12:38;1.00;;;1.00;;
17784;SDS011;9016;53.582;10.062;2023-06-22T09:15:08;0.90;;;0.90;;
17784;SDS011;9016;53.582;10.062;2023-06-22T09:17:43;0.90;;;0.90;;
17784;SDS011;9016;53.582;10.062;2023-06-22T09:20:13;0.80;;;0.80;;
17784;SDS011;9016;53.582;10.062;2023-06-22T09:22:41;0.93;;;0.93;;
17784;SDS011;9016;53.582;10.062;2023-06-22T09:25:09;1.00;;;1.00;;
17784;SDS011;9016;53.582;10.062;2023-06-22T09:27:37;1.00;;;1.00;;
17784;SDS011;9016;53.582;10.062;2023-06-22T09:30:06;0.88;;;0.88;;
17784;SDS011;9016;53.582;10.062;2023-06-22T09:32:36;0.90;;;0.90;;
17784;SDS011;9016;53.582;10.062;2023-06-22T09:35:04;0.90;;;0.90;;
17784;SDS011;9016;53.582;10.062;2023-06-22T09:37:34;0.98;;;0.98;;
17784;SDS011;9016;53.582;10.062;2023-06-22T09:40:04;0.90;;;0.90;;
17784;SDS011;9016;53.582;10.062;2023-06-22T09:42:39;0.90;;;0.90;;
17784;SDS011;9016;53.582;10.062;2023-06-22T09:45:09;0.80;;;0.80;;
17784;SDS011;9016;53.582;10.062;2023-06-22T09:47:38;0.82;;;0.82;;
17784;SDS011;9016;53.582;10.062;2023-06-22T09:50:07;0.73;;;0.73;;
17784;SDS011;9016;53.582;10.062;2023-06-22T09:52:35;0.70;;;0.70;;
17784;SDS011;9016;53.582;10.062;2023-06-22T09:55:07;0.60;;;0.60;;
17784;SDS011;9016;53.582;10.062;2023-06-22T09:57:35;0.70;;;0.70;;
17784;SDS011;9016;53.582;10.062;2023-06-22T10:00:04;0.60;;;0.60;;
17784;SDS011;9016;53.582;10.062;2023-06-22T10:02:39;0.70;;;0.70;;
17784;SDS011;9016;53.582;10.062;2023-06-22T10:05:08;0.60;;;0.60;;
17784;SDS011;9016;53.582;10.062;2023-06-22T10:07:36;0.63;;;0.63;;
17784;SDS011;9016;53.582;10.062;2023-06-22T10:10:09;0.60;;;0.60;;
17784;SDS011;9016;53.582;10.062;2023-06-22T10:12:40;0.60;;;0.60;;
17784;SDS011;9016;53.582;10.062;2023-06-22T10:15:09;0.60;;;0.60;;
17784;SDS011;9016;53.582;10.062;2023-06-22T10:17:40;0.60;;;0.60;;
17784;SDS011;9016;53.582;10.062;2023-06-22T10:20:08;0.60;;;0.60;;
17784;SDS011;9016;53.582;10.062;2023-06-22T10:22:39;0.60;;;0.60;;
17784;SDS011;9016;53.582;10.062;2023-06-22T10:25:08;0.60;;;0.60;;
17784;SDS011;9016;53.582;10.062;2023-06-22T10:27:36;0.60;;;0.60;;
17784;SDS011;9016;53.582;10.062;2023-06-22T10:30:06;0.50;;;0.50;;
17784;SDS011;9016;53.582;10.062;2023-06-22T10:32:37;0.50;;;0.50;;
17784;SDS011;9016;53.582;10.062;2023-06-22T10:35:07;0.60;;;0.60;;
17784;SDS011;9016;53.582;10.062;2023-06-22T10:37:37;0.50;;;0.50;;
17784;SDS011;9016;53.582;10.062;2023-06-22T10:40:05;0.60;;;0.60;;
17784;SDS011;9016;53.582;10.062;2023-06-22T10:42:34;0.60;;;0.60;;
17784;SDS011;9016;53.582;10.062;2023-06-22T10:45:02;0.60;;;0.60;;
17784;SDS011;9016;53.582;10.062;2023-06-22T10:47:31;0.60;;;0.60;;
17784;SDS011;9016;53.582;10.062;2023-06-22T10:49:59;0.60;;;0.60;;
17784;SDS011;9016;53.582;10.062;2023-06-22T10:52:32;0.55;;;0.55;;
17784;SDS011;9016;53.582;10.062;2023-06-22T10:55:01;0.60;;;0.60;;
17784;SDS011;9016;53.582;10.062;2023-06-22T10:57:29;0.50;;;0.50;;
17784;SDS011;9016;53.582;10.062;2023-06-22T10:59:57;0.50;;;0.50;;
17784;SDS011;9016;53.582;10.062;2023-06-22T11:02:25;0.52;;;0.52;;
17784;SDS011;9016;53.582;10.062;2023-06-22T11:04:54;0.60;;;0.60;;
17784;SDS011;9016;53.582;10.062;2023-06-22T11:07:22;0.50;;;0.50;;
17784;SDS011;9016;53.582;10.062;2023-06-22T11:09:52;0.60;;;0.60;;
17784;SDS011;9016;53.582;10.062;2023-06-22T11:12:20;0.50;;;0.50;;
17784;SDS011;9016;53.582;10.062;2023-06-22T11:14:49;0.50;;;0.50;;
17784;SDS011;9016;53.582;10.062;2023-06-22T11:17:18;0.60;;;0.60;;
17784;SDS011;9016;53.582;10.062;2023-06-22T11:19:46;0.50;;;0.50;;
17784;SDS011;9016;53.582;10.062;2023-06-22T11:22:14;0.60;;;0.60;;
17784;SDS011;9016;53.582;10.062;2023-06-22T11:24:42;0.50;;;0.50;;
17784;SDS011;9016;53.582;10.062;2023-06-22T11:27:12;0.50;;;0.50;;
17784;SDS011;9016;53.582;10.062;2023-06-22T11:29:40;0.50;;;0.50;;
17784;SDS011;9016;53.582;10.062;2023-06-22T11:32:08;0.60;;;0.60;;
17784;SDS011;9016;53.582;10.062;2023-06-22T11:34:41;0.52;;;0.52;;
17784;SDS011;9016;53.582;10.062;2023-06-22T11:37:09;0.50;;;0.50;;
17784;SDS011;9016;53.582;10.062;2023-06-22T11:39:38;0.47;;;0.47;;
17784;SDS011;9016;53.582;10.062;2023-06-22T11:42:15;0.40;;;0.40;;
17784;SDS011;9016;53.582;10.062;2023-06-22T11:44:43;0.40;;;0.40;;
17784;SDS011;9016;53.582;10.062;2023-06-22T11:47:11;0.40;;;0.40;;
17784;SDS011;9016;53.582;10.062;2023-06-22T11:49:39;0.50;;;0.50;;
17784;SDS011;9016;53.582;10.062;2023-06-22T11:52:07;0.50;;;0.50;;
17784;SDS011;9016;53.582;10.062;2023-06-22T11:54:35;0.50;;;0.50;;
17784;SDS011;9016;53.582;10.062;2023-06-22T11:57:04;0.57;;;0.57;;
17784;SDS011;9016;53.582;10.062;2023-06-22T11:59:33;0.50;;;0.50;;
17784;SDS011;9016;53.582;10.062;2023-06-22T12:02:01;0.50;;;0.50;;
17784;SDS011;9016;53.582;10.062;2023-06-22T12:04:30;0.50;;;0.50;;
17784;SDS011;9016;53.582;10.062;2023-06-22T12:06:58;0.57;;;0.57;;
17784;SDS011;9016;53.582;10.062;2023-06-22T12:09:26;0.50;;;0.50;;
17784;SDS011;9016;53.582;10.062;2023-06-22T12:11:54;0.60;;;0.60;;
17784;SDS011;9016;53.582;10.062;2023-06-22T12:14:22;0.50;;;0.50;;
17784;SDS011;9016;53.582;10.062;2023-06-22T12:16:52;0.60;;;0.60;;
17784;SDS011;9016;53.582;10.062;2023-06-22T12:19:20;0.50;;;0.50;;
17784;SDS011;9016;53.582;10.062;2023-06-22T12:21:48;0.60;;;0.60;;
17784;SDS011;9016;53.582;10.062;2023-06-22T12:24:16;0.50;;;0.50;;
17784;SDS011;9016;53.582;10.062;2023-06-22T12:26:44;0.50;;;0.50;;
17784;SDS011;9016;53.582;10.062;2023-06-22T12:29:13;0.50;;;0.50;;
17784;SDS011;9016;53.582;10.062;2023-06-22T12:31:41;0.50;;;0.50;;
17784;SDS011;9016;53.582;10.062;2023-06-22T12:34:10;0.50;;;0.50;;
17784;SDS011;9016;53.582;10.062;2023-06-22T12:36:38;0.50;;;0.50;;
17784;SDS011;9016;53.582;10.062;2023-06-22T12:39:07;0.50;;;0.50;;
17784;SDS011;9016;53.582;10.062;2023-06-22T12:41:35;0.40;;;0.40;;
17784;SDS011;9016;53.582;10.062;2023-06-22T12:44:04;0.50;;;0.50;;
17784;SDS011;9016;53.582;10.062;2023-06-22T12:46:32;0.50;;;0.50;;
17784;SDS011;9016;53.582;10.062;2023-06-22T12:49:04;0.50;;;0.50;;
17784;SDS011;9016;53.582;10.062;2023-06-22T12:51:38;0.50;;;0.50;;
17784;SDS011;9016;53.582;10.062;2023-06-22T12:54:08;0.55;;;0.55;;
17784;SDS011;9016;53.582;10.062;2023-06-22T12:56:37;0.50;;;0.50;;
17784;SDS011;9016;53.582;10.062;2023-06-22T12:59:05;0.50;;;0.50;;
17784;SDS011;9016;53.582;10.062;2023-06-22T13:01:33;0.50;;;0.50;;
17784;SDS011;9016;53.582;10.062;2023-06-22T13:04:01;0.43;;;0.43;;
17784;SDS011;9016;53.582;10.062;2023-06-22T13:06:30;0.50;;;0.50;;
17784;SDS011;9016;53.582;10.062;2023-06-22T13:08:59;0.47;;;0.47;;
17784;SDS011;9016;53.582;10.062;2023-06-22T13:11:30;0.50;;;0.50;;
17784;SDS011;9016;53.582;10.062;2023-06-22T13:13:58;0.52;;;0.52;;
17784;SDS011;9016;53.582;10.062;2023-06-22T13:16:26;0.50;;;0.50;;
17784;SDS011;9016;53.582;10.062;2023-06-22T13:18:54;0.50;;;0.50;;
17784;SDS011;9016;53.582;10.062;2023-06-22T13:21:22;0.50;;;0.50;;
17784;SDS011;9016;53.582;10.062;2023-06-22T13:23:50;0.50;;;0.50;;
17784;SDS011;9016;53.582;10.062;2023-06-22T13:26:20;0.50;;;0.50;;
17784;SDS011;9016;53.582;10.062;2023-06-22T13:28:48;0.50;;;0.50;;
17784;SDS011;9016;53.582;10.062;2023-06-22T13:31:16;0.50;;;0.50;;
17784;SDS011;9016;53.582;10.062;2023-06-22T13:33:44;0.50;;;0.50;;
17784;SDS011;9016;53.582;10.062;2023-06-22T13:36:14;0.45;;;0.45;;
17784;SDS011;9016;53.582;10.062;2023-06-22T13:38:43;0.50;;;0.50;;
17784;SDS011;9016;53.582;10.062;2023-06-22T13:41:11;0.43;;;0.43;;
17784;SDS011;9016;53.582;10.062;2023-06-22T13:43:40;0.40;;;0.40;;
17784;SDS011;9016;53.582;10.062;2023-06-22T13:46:08;0.40;;;0.40;;
17784;SDS011;9016;53.582;10.062;2023-06-22T13:48:37;0.50;;;0.50;;
17784;SDS011;9016;53.582;10.062;2023-06-22T13:51:04;0.50;;;0.50;;
17784;SDS011;9016;53.582;10.062;2023-06-22T13:53:32;0.50;;;0.50;;
17784;SDS011;9016;53.582;10.062;2023-06-22T13:56:01;0.40;;;0.40;;
17784;SDS011;9016;53.582;10.062;2023-06-22T13:58:29;0.40;;;0.40;;
17784;SDS011;9016;53.582;10.062;2023-06-22T14:00:58;0.50;;;0.50;;
17784;SDS011;9016;53.582;10.062;2023-06-22T14:03:26;0.45;;;0.45;;
17784;SDS011;9016;53.582;10.062;2023-06-22T14:05:54;0.43;;;0.43;;
17784;SDS011;9016;53.582;10.062;2023-06-22T14:08:24;0.50;;;0.50;;
17784;SDS011;9016;53.582;10.062;2023-06-22T14:10:55;0.50;;;0.50;;
17784;SDS011;9016;53.582;10.062;2023-06-22T14:13:23;0.45;;;0.45;;
17784;SDS011;9016;53.582;10.062;2023-06-22T14:15:54;0.50;;;0.50;;
17784;SDS011;9016;53.582;10.062;2023-06-22T14:18:24;0.50;;;0.50;;
17784;SDS011;9016;53.582;10.062;2023-06-22T14:20:52;0.50;;;0.50;;
17784;SDS011;9016;53.582;10.062;2023-06-22T14:23:21;0.40;;;0.40;;
17784;SDS011;9016;53.582;10.062;2023-06-22T14:25:53;0.50;;;0.50;;
17784;SDS011;9016;53.582;10.062;2023-06-22T14:28:21;0.40;;;0.40;;
17784;SDS011;9016;53.582;10.062;2023-06-22T14:30:49;0.50;;;0.50;;
17784;SDS011;9016;53.582;10.062;2023-06-22T14:33:17;0.40;;;0.40;;
17784;SDS011;9016;53.582;10.062;2023-06-22T14:35:47;0.40;;;0.40;;
17784;SDS011;9016;53.582;10.062;2023-06-22T14:38:15;0.50;;;0.50;;
17784;SDS011;9016;53.582;10.062;2023-06-22T14:40:43;0.45;;;0.45;;
17784;SDS011;9016;53.582;10.062;2023-06-22T14:43:31;0.40;;;0.40;;
17784;SDS011;9016;53.582;10.062;2023-06-22T14:45:59;0.40;;;0.40;;
17784;SDS011;9016;53.582;10.062;2023-06-22T14:48:27;0.45;;;0.45;;
17784;SDS011;9016;53.582;10.062;2023-06-22T14:50:56;0.40;;;0.40;;
17784;SDS011;9016;53.582;10.062;2023-06-22T14:53:24;0.40;;;0.40;;
17784;SDS011;9016;53.582;10.062;2023-06-22T14:55:52;0.40;;;0.40;;
17784;SDS011;9016;53.582;10.062;2023-06-22T14:58:21;0.40;;;0.40;;
17784;SDS011;9016;53.582;10.062;2023-06-22T15:00:49;0.40;;;0.40;;